createdAt,value
2023-01-01T00:00:44.399Z,86.60
2023-01-01T00:05:46.188Z,74.35
2023-01-01T00:10:47.867Z,93.45
2023-01-01T00:15:49.571Z,106.88
2023-01-01T00:20:51.177Z,82.00
2023-01-01T00:25:52.797Z,79.40
2023-01-01T00:30:55.218Z,77.50
2023-01-01T00:35:56.851Z,64.30
2023-01-01T00:40:58.613Z,73.25
2023-01-01T00:46:00.361Z,64.20
2023-01-01T00:51:02.361Z,65.82
2023-01-01T00:56:04.953Z,59.17
2023-01-01T01:01:07.055Z,60.70
2023-01-01T01:06:12.905Z,54.13
2023-01-01T01:11:16.323Z,54.30
2023-01-01T01:16:18.180Z,51.38
2023-01-01T01:21:22.745Z,54.65
2023-01-01T01:26:27.892Z,53.20
2023-01-01T01:31:31.904Z,52.15
2023-01-01T01:36:33.529Z,50.88
2023-01-01T01:41:35.219Z,47.97
2023-01-01T01:46:41.631Z,42.60
2023-01-01T01:51:45.084Z,48.30
2023-01-01T01:56:57.674Z,50.33
2023-01-01T02:02:00.528Z,49.92
2023-01-01T02:07:02.491Z,43.33
2023-01-01T02:12:04.229Z,46.80
2023-01-01T02:17:14.606Z,37.53
2023-01-01T02:22:24.931Z,45.50
2023-01-01T02:28:04.196Z,42.50
2023-01-01T02:33:12.294Z,42.83
2023-01-01T02:38:30.483Z,47.95
2023-01-01T02:43:32.475Z,44.00
2023-01-01T02:48:48.804Z,45.47
2023-01-01T02:54:02.625Z,38.25
2023-01-01T02:59:47.740Z,42.00
2023-01-01T03:05:11.024Z,40.25
2023-01-01T03:10:21.985Z,40.15
2023-01-01T03:15:31.247Z,37.90
2023-01-01T03:20:38.505Z,39.80
2023-01-01T03:25:48.294Z,45.85
2023-01-01T03:30:52.830Z,42.10
2023-01-01T03:36:01.094Z,39.83
2023-01-01T03:41:08.340Z,34.38
2023-01-01T03:46:12.996Z,33.00
2023-01-01T03:51:32.727Z,38.65
2023-01-01T03:56:45.954Z,36.95
2023-01-01T04:01:57.416Z,38.42
2023-01-01T04:07:09.293Z,35.08
2023-01-01T04:12:18.376Z,33.10
2023-01-01T04:17:20.039Z,35.70
2023-01-01T04:22:23.723Z,34.60
2023-01-01T04:27:25.587Z,31.83
2023-01-01T04:32:27.246Z,35.35
2023-01-01T04:37:28.868Z,33.60
2023-01-01T04:42:30.657Z,30.83
2023-01-01T04:47:32.583Z,29.55
2023-01-01T04:52:34.221Z,34.20
2023-01-01T04:57:35.884Z,29.17
2023-01-01T05:02:37.633Z,27.92
2023-01-01T05:07:39.377Z,31.30
2023-01-01T05:12:41.077Z,29.30
2023-01-01T05:17:42.840Z,34.40
2023-01-01T05:22:47.052Z,29.63
2023-01-01T05:27:48.769Z,34.03
2023-01-01T05:32:50.490Z,29.33
2023-01-01T05:37:52.139Z,27.33
2023-01-01T05:42:53.825Z,27.85
2023-01-01T05:47:56.623Z,26.98
2023-01-01T05:52:58.327Z,30.23
2023-01-01T05:58:00.055Z,28.83
2023-01-01T06:03:01.821Z,26.77
2023-01-01T06:08:03.536Z,27.85
2023-01-01T06:13:11.147Z,28.13
2023-01-01T06:18:14.723Z,32.17
2023-01-01T06:23:16.708Z,30.02
2023-01-01T06:28:18.398Z,29.75
2023-01-01T06:33:20.080Z,27.02
2023-01-01T06:38:21.819Z,28.48
2023-01-01T06:43:23.540Z,30.50
2023-01-01T06:48:25.155Z,27.58
2023-01-01T06:53:27.145Z,29.40
2023-01-01T06:58:29.107Z,28.85
2023-01-01T07:03:30.880Z,31.30
2023-01-01T07:08:33.144Z,28.40
2023-01-01T07:13:34.983Z,30.35
2023-01-01T07:18:36.663Z,28.23
2023-01-01T07:23:38.308Z,26.15
2023-01-01T07:28:39.967Z,29.58
2023-01-01T07:33:41.627Z,25.48
2023-01-01T07:38:43.495Z,27.80
2023-01-01T07:43:45.205Z,29.58
2023-01-01T07:48:47.375Z,32.63
2023-01-01T07:53:49.098Z,30.40
2023-01-01T07:58:50.816Z,28.90
2023-01-01T08:03:53.123Z,30.27
2023-01-01T08:08:54.825Z,30.08
2023-01-01T08:13:56.541Z,31.17
2023-01-01T08:18:58.215Z,32.00
2023-01-01T08:24:00.015Z,30.10
2023-01-01T08:29:06.831Z,34.60
2023-01-01T08:34:08.638Z,27.92
2023-01-01T08:39:10.400Z,28.40
2023-01-01T08:44:12.052Z,30.40
2023-01-01T08:49:13.737Z,33.03
2023-01-01T08:54:15.435Z,26.45
2023-01-01T08:59:17.228Z,29.08
2023-01-01T09:04:18.976Z,30.15
2023-01-01T09:09:24.307Z,28.48
2023-01-01T09:14:29.050Z,32.67
2023-01-01T09:19:30.849Z,31.02
2023-01-01T09:24:32.648Z,28.67
2023-01-01T09:29:34.421Z,29.30
2023-01-01T09:34:36.419Z,30.88
2023-01-01T09:39:38.117Z,36.53
2023-01-01T09:44:45.779Z,37.72
2023-01-01T09:49:49.149Z,33.63
2023-01-01T09:54:57.857Z,35.25
2023-01-01T10:00:00.048Z,35.85
2023-01-01T10:05:21.717Z,36.80
2023-01-01T10:10:55.579Z,33.50
2023-01-01T10:16:24.708Z,28.85
2023-01-01T10:21:35.788Z,30.08
2023-01-01T10:26:38.780Z,31.13
2023-01-01T10:31:45.471Z,27.85
2023-01-01T10:41:49.196Z,27.08
2023-01-01T10:46:56.295Z,24.85
2023-01-01T10:51:59.435Z,29.85
2023-01-01T10:57:14.669Z,26.52
2023-01-01T11:02:27.597Z,26.48
2023-01-01T11:07:33.943Z,29.92
2023-01-01T11:13:04.104Z,34.45
2023-01-01T11:18:10.863Z,30.83
2023-01-01T11:23:39.944Z,32.65
2023-01-01T11:28:41.917Z,35.95
2023-01-01T11:33:49.229Z,37.78
2023-01-01T11:39:06.041Z,32.00
2023-01-01T11:44:11.121Z,34.65
2023-01-01T11:49:15.325Z,37.13
2023-01-01T11:54:34.282Z,33.72
2023-01-01T11:59:49.822Z,34.45
2023-01-01T12:05:01.125Z,28.98
2023-01-01T12:10:16.416Z,32.42
2023-01-01T12:15:41.735Z,29.85
2023-01-01T12:20:59.278Z,31.77
2023-01-01T12:26:13.075Z,30.20
2023-01-01T12:31:58.009Z,33.00
2023-01-01T12:37:46.212Z,28.75
2023-01-01T12:43:15.978Z,30.63
2023-01-01T12:48:30.923Z,31.17
2023-01-01T12:53:38.840Z,29.75
2023-01-01T12:58:52.772Z,32.28
2023-01-01T13:04:05.528Z,29.38
2023-01-01T13:09:14.988Z,32.63
2023-01-01T13:14:16.876Z,29.08
2023-01-01T13:19:31.722Z,28.67
2023-01-01T13:24:33.463Z,26.35
2023-01-01T13:29:42.534Z,28.20
2023-01-01T13:35:00.334Z,29.95
2023-01-01T13:40:29.442Z,27.65
2023-01-01T13:46:11.218Z,25.95
2023-01-01T13:52:03.352Z,32.25
2023-01-01T13:56:57.651Z,25.17
2023-01-01T14:02:10.868Z,27.80
2023-01-01T14:07:51.657Z,28.73
2023-01-01T14:13:02.178Z,25.85
2023-01-01T14:18:17.776Z,26.23
2023-01-01T14:23:28.465Z,26.70
2023-01-01T14:28:32.654Z,25.10
2023-01-01T14:33:34.529Z,26.50
2023-01-01T14:38:43.307Z,23.00
2023-01-01T14:43:50.865Z,26.17
2023-01-01T14:48:55.707Z,29.92
2023-01-01T14:54:03.520Z,26.17
2023-01-01T14:59:24.321Z,28.20
2023-01-01T15:04:26.224Z,27.08
2023-01-01T15:09:30.709Z,24.35
2023-01-01T15:14:39.432Z,29.02
2023-01-01T15:19:43.890Z,22.20
2023-01-01T15:24:46.217Z,26.60
2023-01-01T15:29:48.025Z,24.80
2023-01-01T15:34:53.168Z,25.48
2023-01-01T15:40:00.488Z,24.85
2023-01-01T15:45:17.515Z,21.73
2023-01-01T15:51:00.392Z,25.50
2023-01-01T15:56:05.761Z,23.55
2023-01-01T16:01:11.360Z,21.27
2023-01-01T16:06:18.150Z,18.80
2023-01-01T16:11:19.911Z,19.38
2023-01-01T16:16:28.870Z,18.85
2023-01-01T16:21:34.895Z,23.45
2023-01-01T16:26:36.632Z,21.47
2023-01-01T16:31:38.859Z,17.75
2023-01-01T16:36:40.863Z,16.27
2023-01-01T16:41:44.250Z,20.75
2023-01-01T16:46:46.061Z,21.90
2023-01-01T16:51:47.895Z,20.90
2023-01-01T16:56:49.633Z,22.48
2023-01-01T17:01:51.739Z,23.13
2023-01-01T17:06:55.402Z,24.65
2023-01-01T17:11:57.132Z,27.52
2023-01-01T17:16:59.977Z,23.90
2023-01-01T17:22:01.910Z,21.85
2023-01-01T17:27:03.778Z,22.58
2023-01-01T17:32:06.017Z,24.20
2023-01-01T17:37:07.882Z,21.75
2023-01-01T17:42:09.735Z,24.00
2023-01-01T17:47:11.515Z,24.83
2023-01-01T17:52:13.228Z,21.73
2023-01-01T17:57:15.216Z,25.35
2023-01-01T18:02:17.084Z,19.10
2023-01-01T18:07:20.295Z,25.50
2023-01-01T18:12:22.377Z,20.13
2023-01-01T18:17:24.315Z,20.98
2023-01-01T18:22:26.635Z,21.60
2023-01-01T18:27:28.600Z,22.23
2023-01-01T18:32:30.294Z,20.33
2023-01-01T18:37:33.675Z,18.05
2023-01-01T18:42:39.305Z,20.10
2023-01-01T18:47:41.324Z,21.48
2023-01-01T18:52:43.573Z,23.05
2023-01-01T18:57:50.269Z,23.05
2023-01-01T19:08:07.933Z,20.17
2023-01-01T19:13:14.598Z,18.25
2023-01-01T19:18:21.755Z,19.45
2023-01-01T19:23:24.807Z,19.85
2023-01-01T19:28:37.490Z,21.55
2023-01-01T19:33:45.833Z,18.73
2023-01-01T19:38:48.086Z,21.70
2023-01-01T19:43:50.236Z,21.00
2023-01-01T19:48:53.832Z,21.60
2023-01-01T19:53:56.006Z,21.70
2023-01-01T19:58:58.132Z,19.63
2023-01-01T20:04:00.836Z,20.52
2023-01-01T20:09:03.467Z,21.52
2023-01-01T20:14:05.795Z,17.50
2023-01-01T20:19:08.124Z,21.40
2023-01-01T20:24:11.640Z,18.00
2023-01-01T20:29:20.480Z,19.58
2023-01-01T20:34:23.733Z,16.23
2023-01-01T20:39:26.912Z,15.57
2023-01-01T20:44:30.237Z,20.33
2023-01-01T20:49:32.925Z,15.80
2023-01-01T20:54:37.730Z,16.40
2023-01-01T20:59:41.557Z,14.20
2023-01-01T21:04:43.860Z,15.35
2023-01-01T21:09:46.813Z,15.63
2023-01-01T21:14:49.711Z,15.50
2023-01-01T21:19:56.208Z,13.27
2023-01-01T21:25:16.838Z,13.63
2023-01-01T21:30:20.970Z,18.63
2023-01-01T21:35:33.681Z,17.20
2023-01-01T21:40:51.890Z,15.10
2023-01-01T21:45:55.435Z,16.33
2023-01-01T21:50:57.803Z,14.88
2023-01-01T21:56:04.877Z,16.25
2023-01-01T22:01:36.170Z,16.52
2023-01-01T22:06:39.472Z,13.40
2023-01-01T22:11:41.726Z,14.32
2023-01-01T22:16:45.121Z,18.23
2023-01-01T22:21:48.092Z,16.70
2023-01-01T22:26:49.756Z,14.07
2023-01-01T22:32:11.981Z,19.70
2023-01-01T22:37:22.020Z,17.02
2023-01-01T22:42:23.759Z,15.93
2023-01-01T22:47:36.182Z,18.02
2023-01-01T22:52:37.854Z,16.25
2023-01-01T22:57:39.659Z,15.48
2023-01-01T23:02:41.393Z,17.42
2023-01-01T23:07:43.576Z,15.23
2023-01-01T23:12:45.280Z,16.95
2023-01-01T23:17:46.945Z,13.98
2023-01-01T23:22:53.333Z,15.30
2023-01-01T23:27:55.730Z,16.27
2023-01-01T23:32:57.506Z,12.65
2023-01-01T23:38:00.453Z,16.45
2023-01-01T23:43:02.225Z,12.38
2023-01-01T23:48:04.906Z,16.27
2023-01-01T23:53:06.675Z,12.02
2023-01-01T23:58:08.359Z,12.15
